createdAt,value
2023-03-06T00:05:06.772Z,15.98
2023-03-06T00:11:58.127Z,17.58
2023-03-06T00:18:55.362Z,12.52
2023-03-06T00:25:44.846Z,17.60
2023-03-06T00:32:39.626Z,15.25
2023-03-06T00:39:27.964Z,12.13
2023-03-06T00:46:23.569Z,12.38
2023-03-06T00:53:11.330Z,15.88
2023-03-06T01:00:00.982Z,11.77
2023-03-06T01:11:03.452Z,10.03
2023-03-06T01:17:59.990Z,14.10
2023-03-06T01:24:40.231Z,12.52
2023-03-06T01:31:33.617Z,9.38
2023-03-06T01:38:23.912Z,14.18
2023-03-06T01:45:54.411Z,10.75
2023-03-06T01:56:54.365Z,11.57
2023-03-06T02:03:47.834Z,12.13
2023-03-06T02:10:35.865Z,10.10
2023-03-06T02:17:31.280Z,13.07
2023-03-06T02:24:28.459Z,10.13
2023-03-06T02:31:32.857Z,11.88
2023-03-06T02:38:29.745Z,16.33
2023-03-06T02:45:13.646Z,15.02
2023-03-06T02:52:09.910Z,13.38
2023-03-06T02:59:11.412Z,15.07
2023-03-06T03:10:31.910Z,12.25
2023-03-06T03:17:20.332Z,10.15
2023-03-06T03:24:14.188Z,11.10
2023-03-06T03:31:06.624Z,15.65
2023-03-06T03:38:01.584Z,14.88
2023-03-06T03:44:42.333Z,11.80
2023-03-06T03:51:42.726Z,14.60
2023-03-06T03:58:36.408Z,12.48
2023-03-06T04:05:24.356Z,15.45
2023-03-06T04:12:18.717Z,12.65
2023-03-06T04:19:11.398Z,12.70
2023-03-06T04:26:05.640Z,14.77
2023-03-06T04:32:56.233Z,14.15
2023-03-06T04:39:50.952Z,16.15
2023-03-06T04:46:38.509Z,12.00
2023-03-06T04:53:33.038Z,10.75
2023-03-06T05:00:30.704Z,13.07
2023-03-06T05:11:52.784Z,14.40
2023-03-06T05:18:39.825Z,29.40
2023-03-06T05:25:33.237Z,12.88
2023-03-06T05:32:23.361Z,15.33
2023-03-06T05:39:17.583Z,15.10
2023-03-06T05:46:07.240Z,21.13
2023-03-06T05:53:01.876Z,14.90
2023-03-06T06:00:07.041Z,15.80
2023-03-06T06:11:20.970Z,27.48
2023-03-06T06:18:14.025Z,16.92
2023-03-06T06:25:01.072Z,19.88
2023-03-06T06:31:49.722Z,15.25
2023-03-06T06:38:36.139Z,15.23
2023-03-06T06:45:29.156Z,14.02
2023-03-06T06:52:12.290Z,13.85
2023-03-06T06:59:16.074Z,15.18
2023-03-06T07:06:16.151Z,17.15
2023-03-06T07:13:11.562Z,14.55
2023-03-06T07:19:58.257Z,14.18
2023-03-06T07:31:21.580Z,11.45
2023-03-06T07:38:07.967Z,14.52
2023-03-06T07:45:01.929Z,10.55
2023-03-06T07:51:49.567Z,12.70
2023-03-06T07:58:43.807Z,11.05
2023-03-06T08:05:24.351Z,11.80
2023-03-06T08:12:19.518Z,12.90
2023-03-06T08:19:06.042Z,15.65
2023-03-06T08:25:59.996Z,13.35
2023-03-06T08:32:48.571Z,15.98
2023-03-06T08:39:42.645Z,16.52
2023-03-06T09:39:01.226Z,10.77
2023-03-06T09:46:06.106Z,12.60
2023-03-06T09:53:07.592Z,11.48
2023-03-06T10:08:59.518Z,10.65
2023-03-06T10:15:58.820Z,11.95
2023-03-06T10:23:12.095Z,12.25
2023-03-06T10:30:28.138Z,11.60
2023-03-06T10:37:32.317Z,15.77
2023-03-06T10:44:39.093Z,16.65
2023-03-06T13:09:23.132Z,21.52
2023-03-06T13:16:30.269Z,18.42
2023-03-06T13:23:51.236Z,19.10
2023-03-06T13:30:51.420Z,20.52
2023-03-06T13:38:04.959Z,17.83
2023-03-06T13:44:46.190Z,20.90
2023-03-06T13:51:43.433Z,15.68
2023-03-06T13:58:49.218Z,20.35
2023-03-06T14:05:48.471Z,17.27
2023-03-06T14:17:24.585Z,16.88
2023-03-06T14:25:06.936Z,16.90
2023-03-06T14:32:02.773Z,23.60
2023-03-06T14:38:53.809Z,24.73
2023-03-06T14:45:57.381Z,22.23
2023-03-06T14:52:52.107Z,29.05
2023-03-06T14:59:37.406Z,24.50
2023-03-06T15:06:38.426Z,21.20
2023-03-06T15:13:31.187Z,18.07
2023-03-06T15:24:45.953Z,26.65
2023-03-06T15:31:34.203Z,23.48
2023-03-06T15:38:35.510Z,23.15
2023-03-06T15:45:26.982Z,21.97
2023-03-06T15:52:16.534Z,24.88
2023-03-06T15:59:03.925Z,28.80
2023-03-06T16:06:00.506Z,21.30
2023-03-06T16:12:51.538Z,39.10
2023-03-06T16:24:05.998Z,32.60
2023-03-06T16:30:54.274Z,29.48
2023-03-06T16:37:48.687Z,24.73
2023-03-06T16:44:39.383Z,69.45
2023-03-06T16:51:33.668Z,31.35
2023-03-06T16:58:23.323Z,38.90
2023-03-06T17:05:23.079Z,40.85
2023-03-06T17:12:11.916Z,40.10
2023-03-06T17:19:02.219Z,41.05
2023-03-06T17:26:50.985Z,43.13
2023-03-06T17:33:40.471Z,39.55
2023-03-06T17:40:36.045Z,32.95
2023-03-06T17:54:34.828Z,49.90
2023-03-06T18:01:27.782Z,42.58
2023-03-06T18:08:21.647Z,61.85
2023-03-06T18:15:13.135Z,51.90
2023-03-06T18:26:48.495Z,42.10
2023-03-06T18:33:46.761Z,65.82
2023-03-06T18:40:44.789Z,57.88
2023-03-06T18:47:44.776Z,39.17
2023-03-06T18:54:40.684Z,62.55
2023-03-06T19:01:32.012Z,64.40
2023-03-06T19:08:26.662Z,62.85
2023-03-06T19:15:18.611Z,58.78
2023-03-06T19:26:33.979Z,54.33
2023-03-06T19:33:26.534Z,52.85
2023-03-06T19:40:23.152Z,52.70
2023-03-06T19:47:06.211Z,46.55
2023-03-06T19:50:36.963Z,47.15
2023-03-06T19:53:18.798Z,49.70
2023-03-06T19:56:04.852Z,44.90
2023-03-06T20:03:05.394Z,45.88
2023-03-06T20:06:40.288Z,47.63
2023-03-06T20:09:53.586Z,50.25
2023-03-06T20:16:44.199Z,52.88
2023-03-06T20:28:04.029Z,94.30
2023-03-06T20:35:09.896Z,53.65
2023-03-06T20:42:05.093Z,88.32
2023-03-06T20:48:56.274Z,73.20
2023-03-06T20:56:18.809Z,95.07
2023-03-06T21:03:08.842Z,89.43
2023-03-06T21:05:40.076Z,78.72
2023-03-06T21:12:22.600Z,80.30
2023-03-06T21:14:59.726Z,83.78
2023-03-06T21:21:46.935Z,77.43
2023-03-06T21:29:38.920Z,76.93
2023-03-06T21:32:10.831Z,64.03
2023-03-06T21:34:46.910Z,73.30
2023-03-06T21:41:05.058Z,67.35
2023-03-06T21:52:26.234Z,38.78
2023-03-06T21:55:27.877Z,44.10
2023-03-06T22:02:23.674Z,33.28
2023-03-06T22:05:12.322Z,36.05
2023-03-06T22:12:06.624Z,42.38
2023-03-06T22:14:44.632Z,49.30
2023-03-06T22:21:39.869Z,55.90
2023-03-06T22:28:29.243Z,61.88
2023-03-06T22:35:22.731Z,57.60
2023-03-06T22:42:03.879Z,58.33
2023-03-06T22:48:59.689Z,50.25
2023-03-06T22:55:46.573Z,52.72
2023-03-06T23:02:35.396Z,59.72
2023-03-06T23:09:25.353Z,55.97
2023-03-06T23:16:36.811Z,67.43
2023-03-06T23:27:58.084Z,72.78
2023-03-06T23:34:50.765Z,83.63
2023-03-06T23:41:38.681Z,76.88
2023-03-06T23:48:33.210Z,74.32
2023-03-06T23:55:14.205Z,83.35
